Time;durP1;ratioP1;P1;durP2;ratioP2;P2;SDS_P1;SDS_P2;PMS_P1;PMS_P2;Temp;Humidity;BMP_temperature;BMP_pressure;BME280_temperature;BME280_humidity;BME280_pressure;Samples;Min_cycle;Max_cycle;Signal;HPM_P1;HPM_P2
2024/02/20 00:00:11;;;;;;;14.30;5.27;;;9.50;99.90;;;;;;5031498;28;20181;-66
2024/02/20 00:02:42;;;;;;;11.73;6.00;;;9.50;99.90;;;;;;5028963;28;20190;-67
2024/02/20 00:05:08;;;;;;;16.20;5.70;;;9.60;99.90;;;;;;5031270;28;20440;-66
2024/02/20 00:07:35;;;;;;;17.77;6.90;;;9.60;99.90;;;;;;5028602;28;20432;-66
2024/02/20 00:10:01;;;;;;;15.90;6.47;;;9.60;99.90;;;;;;5030936;28;20531;-67
2024/02/20 00:12:28;;;;;;;18.70;7.17;;;9.60;99.90;;;;;;5030668;28;20437;-66
2024/02/20 00:14:53;;;;;;;19.70;6.73;;;9.60;99.90;;;;;;5030179;28;20425;-67
2024/02/20 00:17:20;;;;;;;15.87;5.80;;;9.60;99.90;;;;;;5030448;28;20440;-67
2024/02/20 00:19:45;;;;;;;13.23;5.90;;;9.60;99.90;;;;;;5030319;28;20958;-66
2024/02/20 00:22:11;;;;;;;16.40;5.70;;;9.60;99.90;;;;;;5030415;28;20525;-67
2024/02/20 00:24:37;;;;;;;17.10;5.57;;;9.50;99.90;;;;;;5030474;28;20181;-67
2024/02/20 00:27:03;;;;;;;19.43;5.63;;;9.50;99.90;;;;;;5029532;28;20198;-68
2024/02/20 00:29:28;;;;;;;20.57;5.83;;;9.60;99.90;;;;;;5031244;28;20221;-67
2024/02/20 00:31:54;;;;;;;15.63;4.80;;;9.60;99.90;;;;;;5027656;28;21260;-67
2024/02/20 00:34:20;;;;;;;12.40;5.70;;;9.60;99.90;;;;;;5031092;28;20194;-67
2024/02/20 00:36:46;;;;;;;19.10;6.20;;;9.60;99.90;;;;;;5030019;28;20184;-67
2024/02/20 00:39:13;;;;;;;16.80;5.10;;;9.60;99.90;;;;;;5030927;28;20294;-67
2024/02/20 00:41:38;;;;;;;12.97;5.43;;;9.50;99.90;;;;;;5030231;28;20185;-67
2024/02/20 00:44:04;;;;;;;16.23;5.70;;;9.60;99.90;;;;;;5029475;28;20424;-67
2024/02/20 00:46:30;;;;;;;18.90;6.47;;;9.60;99.90;;;;;;5030906;28;20202;-67
2024/02/20 00:48:56;;;;;;;15.17;5.03;;;9.60;99.90;;;;;;5034231;28;20466;-68
2024/02/20 00:51:22;;;;;;;16.73;5.50;;;9.60;99.90;;;;;;5033431;28;20221;-66
2024/02/20 00:53:49;;;;;;;11.00;5.07;;;9.50;99.90;;;;;;5032903;28;20977;-68
2024/02/20 00:56:15;;;;;;;16.90;4.77;;;9.50;99.90;;;;;;5032483;28;20539;-66
2024/02/20 00:58:45;;;;;;;21.53;5.33;;;9.50;99.90;;;;;;5033445;28;20425;-68
2024/02/20 01:01:14;;;;;;;17.67;5.67;;;9.50;99.90;;;;;;5033170;28;20428;-66
2024/02/20 01:03:42;;;;;;;14.77;6.13;;;9.50;99.90;;;;;;5033324;28;20429;-67
2024/02/20 01:06:09;;;;;;;17.80;5.70;;;9.50;99.90;;;;;;5033519;28;20501;-67
2024/02/20 01:08:36;;;;;;;16.30;4.97;;;9.50;99.90;;;;;;5033779;28;20448;-67
2024/02/20 01:11:05;;;;;;;21.50;7.37;;;9.50;99.90;;;;;;5033044;28;20910;-67
2024/02/20 01:13:32;;;;;;;13.93;6.30;;;9.50;99.90;;;;;;5034116;28;20432;-67
2024/02/20 01:15:58;;;;;;;21.37;5.73;;;9.40;99.90;;;;;;5015965;28;20786;-66
2024/02/20 01:18:23;;;;;;;23.43;5.90;;;9.40;99.90;;;;;;5033330;28;20654;-67
2024/02/20 01:20:49;;;;;;;18.87;6.33;;;9.50;99.90;;;;;;5033702;28;20738;-67
2024/02/20 01:23:15;;;;;;;20.67;6.97;;;9.40;99.90;;;;;;5032587;28;20185;-67
2024/02/20 01:25:43;;;;;;;17.67;7.57;;;9.40;99.90;;;;;;5033689;28;20267;-67
2024/02/20 01:28:10;;;;;;;14.93;7.27;;;9.40;99.90;;;;;;5033272;28;20181;-67
2024/02/20 01:30:36;;;;;;;17.77;8.10;;;9.40;99.90;;;;;;5031123;28;20480;-66
2024/02/20 01:33:02;;;;;;;27.47;9.80;;;9.50;99.90;;;;;;5033138;28;20935;-67
2024/02/20 01:35:28;;;;;;;25.57;7.57;;;9.40;99.90;;;;;;5033261;28;20432;-66
2024/02/20 01:37:54;;;;;;;12.30;6.27;;;9.40;99.90;;;;;;5032755;28;20432;-68
2024/02/20 01:40:21;;;;;;;13.00;5.87;;;9.40;99.90;;;;;;5032388;28;20429;-67
2024/02/20 01:42:56;;;;;;;23.43;7.50;;;9.40;99.90;;;;;;5032618;28;20489;-67
2024/02/20 01:45:27;;;;;;;25.77;7.30;;;9.40;99.90;;;;;;5032635;28;20795;-67
2024/02/20 01:47:54;;;;;;;20.20;6.33;;;9.40;99.90;;;;;;5032772;28;20436;-66
2024/02/20 01:50:20;;;;;;;13.93;6.37;;;9.40;99.90;;;;;;5033012;28;20440;-67
2024/02/20 01:52:46;;;;;;;18.43;6.70;;;9.40;99.90;;;;;;5033309;28;20471;-67
2024/02/20 01:55:12;;;;;;;16.07;6.67;;;9.40;99.90;;;;;;5033166;28;20443;-67
2024/02/20 01:57:42;;;;;;;16.93;8.00;;;9.30;99.90;;;;;;5032071;28;20805;-69
2024/02/20 02:00:08;;;;;;;15.57;7.07;;;9.30;99.90;;;;;;5031818;28;20439;-67
2024/02/20 02:02:34;;;;;;;22.37;7.30;;;9.30;99.90;;;;;;5032252;28;20516;-67
2024/02/20 02:05:00;;;;;;;16.60;7.57;;;9.30;99.90;;;;;;5028742;28;20443;-67
2024/02/20 02:07:25;;;;;;;19.93;8.67;;;9.30;99.90;;;;;;5029230;28;20189;-67
2024/02/20 02:09:51;;;;;;;23.23;8.03;;;9.30;99.90;;;;;;5031097;28;20194;-68
2024/02/20 02:12:18;;;;;;;16.17;7.23;;;9.30;99.90;;;;;;5031175;28;20209;-67
2024/02/20 02:14:45;;;;;;;22.37;9.17;;;9.30;99.90;;;;;;5031321;28;20182;-67
2024/02/20 02:17:14;;;;;;;21.87;7.77;;;9.30;99.90;;;;;;5029122;28;20425;-68
2024/02/20 02:19:40;;;;;;;16.57;7.27;;;9.30;99.90;;;;;;5030347;28;20429;-68
2024/02/20 02:22:07;;;;;;;18.70;6.47;;;9.30;99.90;;;;;;5029833;28;20499;-67
2024/02/20 02:24:36;;;;;;;27.60;7.63;;;9.30;99.90;;;;;;5029812;28;20507;-67
2024/02/20 02:27:06;;;;;;;20.33;9.50;;;9.20;99.90;;;;;;5029030;28;20436;-66
2024/02/20 02:29:32;;;;;;;30.03;8.00;;;9.30;99.90;;;;;;5029752;28;20475;-67
2024/02/20 02:31:58;;;;;;;25.03;8.47;;;9.30;99.90;;;;;;5028644;28;21023;-67
2024/02/20 02:34:27;;;;;;;24.83;9.70;;;9.20;99.90;;;;;;5029907;28;21011;-66
2024/02/20 02:36:53;;;;;;;26.37;10.70;;;9.30;99.90;;;;;;5029563;28;20459;-68
2024/02/20 02:39:20;;;;;;;28.97;11.03;;;9.20;99.90;;;;;;5027992;28;20979;-67
2024/02/20 02:41:48;;;;;;;29.47;12.20;;;9.30;99.90;;;;;;5029957;28;20417;-68
2024/02/20 02:44:14;;;;;;;30.30;12.83;;;9.20;99.90;;;;;;5030519;28;20475;-67
2024/02/20 02:46:40;;;;;;;22.70;11.97;;;9.20;99.90;;;;;;5029050;28;20535;-67
2024/02/20 02:49:07;;;;;;;23.70;12.17;;;9.20;99.90;;;;;;5028902;28;20432;-66
2024/02/20 02:51:33;;;;;;;32.10;12.20;;;9.20;99.90;;;;;;5028580;28;21035;-67
2024/02/20 02:53:59;;;;;;;30.63;13.47;;;9.20;99.90;;;;;;5030454;28;20429;-68
2024/02/20 02:56:25;;;;;;;25.90;11.43;;;9.20;99.90;;;;;;5028309;28;20433;-67
2024/02/20 02:58:51;;;;;;;27.63;13.57;;;9.10;99.90;;;;;;5030050;28;20429;-68
2024/02/20 03:01:16;;;;;;;29.37;12.23;;;9.10;99.90;;;;;;5028098;28;20464;-67
2024/02/20 03:03:42;;;;;;;30.60;12.73;;;9.10;99.90;;;;;;5030500;28;20188;-67
2024/02/20 03:06:08;;;;;;;23.60;12.77;;;9.10;99.90;;;;;;5029033;28;20232;-68
2024/02/20 03:08:36;;;;;;;32.80;14.73;;;9.10;99.90;;;;;;5027892;28;20635;-67
2024/02/20 03:11:05;;;;;;;33.87;13.80;;;9.10;99.90;;;;;;5028109;28;20823;-67
2024/02/20 03:13:33;;;;;;;27.40;13.27;;;9.10;99.90;;;;;;5028366;28;20443;-67
2024/02/20 03:16:02;;;;;;;26.93;12.70;;;9.10;99.90;;;;;;5029997;28;20432;-68
2024/02/20 03:18:31;;;;;;;35.07;12.80;;;9.10;99.90;;;;;;5028484;28;21101;-67
2024/02/20 03:20:58;;;;;;;31.53;13.17;;;9.10;99.90;;;;;;5029123;28;20428;-67
2024/02/20 03:23:26;;;;;;;33.57;14.67;;;9.10;99.90;;;;;;5028312;28;20484;-67
2024/02/20 03:25:53;;;;;;;32.60;13.00;;;9.10;99.90;;;;;;5029621;28;20987;-67
2024/02/20 03:28:18;;;;;;;26.30;12.47;;;9.10;99.90;;;;;;5027963;28;20930;-68
2024/02/20 03:30:44;;;;;;;26.93;14.03;;;9.10;99.90;;;;;;5027785;28;20469;-66
2024/02/20 03:33:10;;;;;;;27.27;13.97;;;9.00;99.90;;;;;;5029777;28;20189;-67
2024/02/20 03:35:36;;;;;;;32.73;13.73;;;9.00;99.90;;;;;;5028568;28;20706;-67
2024/02/20 03:38:02;;;;;;;27.83;14.03;;;9.10;99.90;;;;;;5028331;28;20183;-68
2024/02/20 03:40:28;;;;;;;29.33;14.27;;;9.00;99.90;;;;;;5027435;28;20864;-67
2024/02/20 03:42:53;;;;;;;33.60;16.00;;;9.00;99.90;;;;;;5029764;28;20543;-67
2024/02/20 03:45:19;;;;;;;30.10;13.50;;;9.00;99.90;;;;;;5027197;28;20220;-68
2024/02/20 03:47:45;;;;;;;28.40;15.17;;;9.10;99.90;;;;;;5030439;28;20185;-68
2024/02/20 03:50:12;;;;;;;30.03;14.23;;;9.10;99.90;;;;;;5030337;28;20233;-67
2024/02/20 03:52:38;;;;;;;23.90;13.70;;;9.10;99.90;;;;;;5030629;28;20432;-67
2024/02/20 03:55:04;;;;;;;37.17;15.17;;;9.10;99.90;;;;;;5031664;28;20437;-67
2024/02/20 03:57:30;;;;;;;30.30;13.30;;;9.10;99.90;;;;;;5030163;28;20185;-68
2024/02/20 03:59:56;;;;;;;32.63;13.47;;;9.10;99.90;;;;;;5030850;28;20938;-67
2024/02/20 04:02:23;;;;;;;30.50;13.70;;;9.10;99.90;;;;;;5029263;28;20694;-67
2024/02/20 04:04:49;;;;;;;25.27;13.17;;;9.10;99.90;;;;;;5031122;28;20421;-66
2024/02/20 04:07:16;;;;;;;33.23;13.80;;;9.10;99.90;;;;;;5029704;28;20433;-67
2024/02/20 04:09:42;;;;;;;22.57;11.93;;;9.10;99.90;;;;;;5028983;28;20186;-67
2024/02/20 04:12:07;;;;;;;32.83;13.50;;;9.10;99.90;;;;;;5029898;28;20500;-68
2024/02/20 04:14:33;;;;;;;24.60;12.90;;;9.10;99.90;;;;;;5030708;28;20522;-67
2024/02/20 04:16:59;;;;;;;25.27;11.20;;;9.00;99.90;;;;;;5030290;28;20268;-67
2024/02/20 04:19:24;;;;;;;27.23;12.60;;;9.10;99.90;;;;;;5030220;28;20224;-67
2024/02/20 04:21:50;;;;;;;29.10;13.17;;;9.00;99.90;;;;;;5032255;28;20185;-68
2024/02/20 04:24:16;;;;;;;33.33;12.97;;;9.10;99.90;;;;;;5032918;28;20244;-67
2024/02/20 04:26:42;;;;;;;24.50;12.60;;;9.00;99.90;;;;;;5034539;28;20188;-67
2024/02/20 04:29:07;;;;;;;29.33;13.23;;;9.00;99.90;;;;;;5034244;28;20625;-67
2024/02/20 04:31:33;;;;;;;23.70;10.70;;;9.00;99.90;;;;;;5032171;28;20522;-68
2024/02/20 04:33:59;;;;;;;24.80;11.70;;;9.00;99.90;;;;;;5035047;28;20583;-67
2024/02/20 04:36:24;;;;;;;23.87;11.13;;;9.00;99.90;;;;;;5033286;28;20266;-67
2024/02/20 04:38:56;;;;;;;20.70;10.83;;;8.90;99.90;;;;;;5035212;28;20185;-67
2024/02/20 04:41:25;;;;;;;19.10;8.53;;;9.00;99.90;;;;;;5034070;28;20318;-68
2024/02/20 04:43:51;;;;;;;24.93;9.53;;;9.00;99.90;;;;;;5034746;28;20513;-68
2024/02/20 04:46:17;;;;;;;18.53;10.20;;;8.90;99.90;;;;;;5032282;28;20485;-68
2024/02/20 04:48:42;;;;;;;24.77;10.13;;;9.00;99.90;;;;;;5034445;28;20544;-67
2024/02/20 04:51:08;;;;;;;22.73;10.47;;;8.90;99.90;;;;;;5033910;28;20206;-66
2024/02/20 04:53:34;;;;;;;20.97;10.60;;;8.90;99.90;;;;;;5033906;28;20336;-67
2024/02/20 04:56:00;;;;;;;24.43;10.37;;;8.80;99.90;;;;;;5034947;28;20178;-67
2024/02/20 04:58:26;;;;;;;21.33;11.30;;;8.80;99.90;;;;;;5033162;28;20240;-67
2024/02/20 05:00:52;;;;;;;23.97;10.70;;;8.80;99.90;;;;;;5033360;28;20908;-68
2024/02/20 05:03:17;;;;;;;20.73;10.20;;;8.80;99.90;;;;;;5034218;28;20436;-67
2024/02/20 05:05:43;;;;;;;27.23;11.90;;;8.80;99.90;;;;;;5034205;28;20620;-68
2024/02/20 05:08:09;;;;;;;20.43;11.17;;;8.80;99.90;;;;;;5033963;28;20185;-67
2024/02/20 05:10:34;;;;;;;27.07;11.00;;;8.70;99.90;;;;;;5032656;28;20221;-67
2024/02/20 05:13:00;;;;;;;20.10;10.33;;;8.70;99.90;;;;;;5034347;28;20192;-68
2024/02/20 05:15:26;;;;;;;24.37;10.93;;;8.70;99.90;;;;;;5033006;28;20193;-67
2024/02/20 05:17:51;;;;;;;24.50;9.70;;;8.70;99.90;;;;;;5033902;28;20185;-67
2024/02/20 05:20:17;;;;;;;26.30;11.53;;;8.70;99.90;;;;;;5033227;28;20182;-68
2024/02/20 05:22:43;;;;;;;20.23;9.67;;;8.70;99.90;;;;;;5033612;28;20708;-67
2024/02/20 05:25:08;;;;;;;23.63;11.00;;;8.60;99.90;;;;;;5034047;28;20189;-67
2024/02/20 05:27:34;;;;;;;18.33;10.67;;;8.60;99.90;;;;;;5032215;28;20182;-66
2024/02/20 05:30:00;;;;;;;26.20;10.87;;;8.70;99.90;;;;;;5034021;28;20190;-66
2024/02/20 05:32:25;;;;;;;23.17;10.77;;;8.60;99.90;;;;;;5030604;28;20272;-67
2024/02/20 05:34:51;;;;;;;19.77;10.43;;;8.60;99.90;;;;;;5032628;28;20287;-67
2024/02/20 05:37:17;;;;;;;22.87;10.07;;;8.60;99.90;;;;;;5032915;28;20196;-66
2024/02/20 05:39:43;;;;;;;24.93;11.17;;;8.60;99.90;;;;;;5032150;28;20198;-67
2024/02/20 05:42:08;;;;;;;22.20;11.20;;;8.60;99.90;;;;;;5033255;28;20231;-66
2024/02/20 05:44:34;;;;;;;25.20;11.13;;;8.60;99.90;;;;;;5033411;28;20244;-67
2024/02/20 05:47:00;;;;;;;22.10;10.43;;;8.60;99.90;;;;;;5032710;28;20920;-66
2024/02/20 05:49:25;;;;;;;23.27;10.73;;;8.60;99.90;;;;;;5033527;28;20483;-67
2024/02/20 05:51:51;;;;;;;23.43;9.60;;;8.60;99.90;;;;;;5033052;28;21406;-66
2024/02/20 05:54:17;;;;;;;20.40;9.50;;;8.50;99.90;;;;;;5029721;28;20232;-66
2024/02/20 05:56:43;;;;;;;20.33;9.17;;;8.50;99.90;;;;;;5030078;28;20195;-67
2024/02/20 05:59:09;;;;;;;21.90;9.43;;;8.50;99.90;;;;;;5033032;28;20260;-67
2024/02/20 06:01:35;;;;;;;14.90;7.60;;;8.50;99.90;;;;;;5031676;28;20512;-67
2024/02/20 06:04:04;;;;;;;21.47;9.30;;;8.50;99.90;;;;;;5031187;28;20555;-66
2024/02/20 06:06:30;;;;;;;20.93;9.43;;;8.50;99.90;;;;;;5031882;28;20197;-67
2024/02/20 06:08:56;;;;;;;21.80;9.27;;;8.50;99.90;;;;;;5032678;28;20472;-67
2024/02/20 06:11:23;;;;;;;15.50;8.63;;;8.50;99.90;;;;;;5032821;28;20932;-66
2024/02/20 06:13:49;;;;;;;20.30;7.90;;;8.40;99.90;;;;;;5032358;28;20173;-66
2024/02/20 06:16:15;;;;;;;21.20;8.37;;;8.50;99.90;;;;;;5032780;28;20437;-67
2024/02/20 06:18:41;;;;;;;20.17;7.37;;;8.50;99.90;;;;;;5032203;28;20460;-66
2024/02/20 06:21:08;;;;;;;20.20;8.60;;;8.50;99.90;;;;;;5032573;28;21280;-66
2024/02/20 06:23:42;;;;;;;18.10;8.23;;;8.40;99.90;;;;;;5032071;28;20980;-67
2024/02/20 06:26:08;;;;;;;22.43;7.03;;;8.50;99.90;;;;;;5030680;28;20463;-68
2024/02/20 06:28:34;;;;;;;18.33;7.23;;;8.40;99.90;;;;;;5032464;28;20437;-67
2024/02/20 06:31:05;;;;;;;17.03;7.30;;;8.40;99.90;;;;;;5030429;28;20912;-66
2024/02/20 06:33:31;;;;;;;15.93;7.33;;;8.40;99.90;;;;;;5031125;28;20432;-67
2024/02/20 06:35:56;;;;;;;14.67;6.80;;;8.40;99.90;;;;;;5031843;28;20425;-66
2024/02/20 06:38:22;;;;;;;20.87;7.80;;;8.40;99.90;;;;;;5031648;28;20668;-67
2024/02/20 06:40:48;;;;;;;15.03;7.40;;;8.40;99.90;;;;;;5030592;28;20185;-66
2024/02/20 06:43:14;;;;;;;18.40;7.30;;;8.40;99.90;;;;;;5032478;28;20222;-67
2024/02/20 06:45:40;;;;;;;19.17;7.50;;;8.40;99.90;;;;;;5030476;28;20687;-67
2024/02/20 06:48:07;;;;;;;23.03;8.07;;;8.40;99.90;;;;;;5032176;28;20191;-67
2024/02/20 06:50:33;;;;;;;14.93;7.30;;;8.40;99.90;;;;;;5032079;28;20467;-68
2024/02/20 06:52:59;;;;;;;17.20;8.03;;;8.40;99.90;;;;;;5031045;28;20802;-67
2024/02/20 06:55:24;;;;;;;18.00;7.03;;;8.40;99.90;;;;;;5032472;28;20949;-67
2024/02/20 06:57:54;;;;;;;21.00;8.13;;;8.40;99.90;;;;;;5031125;28;20188;-67
2024/02/20 07:00:20;;;;;;;16.77;7.50;;;8.40;99.90;;;;;;5031618;28;20703;-68
2024/02/20 07:02:46;;;;;;;19.60;6.70;;;8.40;99.90;;;;;;5027552;28;20790;-67
2024/02/20 07:05:13;;;;;;;16.50;6.80;;;8.40;99.90;;;;;;5028669;28;20433;-66
2024/02/20 07:07:39;;;;;;;18.97;7.40;;;8.40;99.90;;;;;;5029898;28;20261;-67
2024/02/20 07:10:08;;;;;;;12.80;6.73;;;8.40;99.90;;;;;;5027185;28;20448;-66
2024/02/20 07:12:34;;;;;;;18.57;6.63;;;8.40;99.90;;;;;;5029703;28;20513;-66
2024/02/20 07:15:06;;;;;;;12.83;6.77;;;8.50;99.90;;;;;;5027518;28;20445;-67
2024/02/20 07:17:36;;;;;;;18.27;7.47;;;8.40;99.90;;;;;;5028631;28;20482;-67
2024/02/20 07:20:03;;;;;;;13.33;7.47;;;8.50;99.90;;;;;;5028635;28;20448;-69
2024/02/20 07:22:31;;;;;;;15.30;7.10;;;8.50;99.90;;;;;;5028870;28;20544;-67
2024/02/20 07:24:57;;;;;;;21.33;10.00;;;8.40;99.90;;;;;;5031192;28;20421;-65
2024/02/20 07:27:22;;;;;;;21.03;9.67;;;8.50;99.90;;;;;;5030528;28;21006;-71
2024/02/20 07:29:49;;;;;;;20.93;9.60;;;8.50;99.90;;;;;;5032556;28;20429;-67
2024/02/20 07:32:15;;;;;;;25.37;11.33;;;8.50;99.90;;;;;;5028266;28;20256;-68
2024/02/20 07:34:41;;;;;;;24.93;11.87;;;8.50;99.90;;;;;;5031918;28;20516;-66
2024/02/20 07:37:07;;;;;;;24.07;12.40;;;8.50;99.90;;;;;;5029583;28;20649;-67
2024/02/20 07:39:33;;;;;;;25.97;11.87;;;8.50;99.90;;;;;;5030756;28;20179;-65
2024/02/20 07:41:59;;;;;;;22.80;13.83;;;8.60;99.90;;;;;;5029340;28;20901;-65
2024/02/20 07:44:25;;;;;;;24.80;11.97;;;8.60;99.90;;;;;;5013175;28;20428;-69
2024/02/20 07:46:52;;;;;;;22.47;11.87;;;8.60;99.90;;;;;;5029785;28;20814;-67
2024/02/20 07:49:18;;;;;;;21.43;12.10;;;8.60;99.90;;;;;;5031100;28;20494;-67
2024/02/20 07:51:43;;;;;;;23.43;11.60;;;8.60;99.90;;;;;;5030127;28;20963;-69
2024/02/20 07:54:09;;;;;;;23.30;12.67;;;8.60;99.90;;;;;;5030788;28;20222;-67
2024/02/20 07:56:35;;;;;;;22.40;14.40;;;8.60;99.90;;;;;;5028789;28;20193;-69
2024/02/20 07:59:00;;;;;;;24.23;12.47;;;8.70;99.90;;;;;;5029883;28;20177;-67
2024/02/20 08:01:26;;;;;;;31.40;15.70;;;8.70;99.90;;;;;;5031279;28;20187;-70
2024/02/20 08:03:55;;;;;;;26.37;14.07;;;8.70;99.90;;;;;;5030081;28;20530;-64
2024/02/20 08:06:21;;;;;;;26.80;13.53;;;8.70;99.90;;;;;;5029460;28;20198;-69
2024/02/20 08:08:47;;;;;;;25.87;15.10;;;8.70;99.90;;;;;;5028460;28;20428;-69
2024/02/20 08:11:13;;;;;;;21.93;13.53;;;8.70;99.90;;;;;;5029884;28;21073;-67
2024/02/20 08:13:44;;;;;;;32.03;15.77;;;8.80;99.90;;;;;;5031176;28;20429;-67
2024/02/20 08:16:13;;;;;;;25.63;14.87;;;8.80;99.90;;;;;;5025348;28;20443;-69
2024/02/20 08:18:40;;;;;;;27.90;15.47;;;8.80;99.90;;;;;;5029259;28;20580;-69
2024/02/20 08:21:07;;;;;;;28.97;16.80;;;8.90;99.90;;;;;;5027634;28;20439;-70
2024/02/20 08:23:39;;;;;;;28.47;16.23;;;8.90;99.90;;;;;;5029112;28;20433;-67
2024/02/20 08:26:06;;;;;;;27.93;16.80;;;9.00;99.90;;;;;;5026127;28;20424;-68
2024/02/20 08:28:32;;;;;;;29.57;16.13;;;9.10;99.90;;;;;;5027972;28;20490;-66
2024/02/20 08:30:59;;;;;;;25.87;15.00;;;9.30;99.90;;;;;;5026732;28;20787;-70
2024/02/20 08:33:25;;;;;;;27.97;16.93;;;9.30;99.90;;;;;;5027675;28;20185;-65
2024/02/20 08:35:52;;;;;;;33.97;15.77;;;9.40;99.90;;;;;;5030210;28;20429;-65
2024/02/20 08:38:17;;;;;;;34.93;16.57;;;9.50;99.90;;;;;;5029476;28;20186;-65
2024/02/20 08:40:43;;;;;;;26.30;15.67;;;9.50;99.90;;;;;;5028761;28;20793;-67
2024/02/20 08:43:09;;;;;;;30.60;17.23;;;9.50;99.90;;;;;;5027700;28;20273;-68
2024/02/20 08:45:35;;;;;;;25.27;14.93;;;9.60;99.90;;;;;;5027259;28;20197;-71
2024/02/20 08:48:01;;;;;;;30.30;15.87;;;9.50;99.90;;;;;;5028897;28;20425;-70
2024/02/20 08:50:30;;;;;;;27.03;15.97;;;9.60;99.90;;;;;;5028553;28;20596;-66
2024/02/20 08:52:55;;;;;;;35.93;17.93;;;9.50;99.90;;;;;;5028589;28;20200;-67
2024/02/20 08:55:21;;;;;;;28.53;17.47;;;9.50;99.90;;;;;;5028808;28;20425;-68
2024/02/20 08:57:47;;;;;;;27.30;18.17;;;9.50;99.90;;;;;;5030092;28;20209;-69
2024/02/20 09:00:13;;;;;;;35.30;18.40;;;9.40;99.90;;;;;;5029595;28;20178;-68
2024/02/20 09:02:42;;;;;;;35.57;19.70;;;9.50;99.90;;;;;;5045405;28;20202;-69
2024/02/20 09:05:11;;;;;;;25.77;17.23;;;9.40;99.90;;;;;;5029436;28;20948;-65
2024/02/20 09:07:38;;;;;;;34.63;18.47;;;9.40;99.90;;;;;;5030404;28;20468;-65
2024/02/20 09:10:05;;;;;;;33.63;18.43;;;9.30;99.90;;;;;;5033529;28;20476;-69
2024/02/20 09:12:32;;;;;;;30.83;18.50;;;9.30;99.90;;;;;;5032787;28;20468;-68
2024/02/20 09:14:57;;;;;;;31.50;18.23;;;9.40;99.90;;;;;;5033730;28;20454;-68
2024/02/20 09:17:23;;;;;;;31.03;17.77;;;9.30;99.90;;;;;;5032545;28;21241;-69
2024/02/20 09:19:49;;;;;;;26.77;17.60;;;9.40;99.90;;;;;;5034136;28;20188;-70
2024/02/20 09:22:15;;;;;;;28.13;17.10;;;9.40;99.90;;;;;;5031546;28;20662;-65
2024/02/20 09:24:41;;;;;;;29.17;17.63;;;9.40;99.90;;;;;;5032447;28;20429;-68
2024/02/20 09:27:07;;;;;;;29.60;18.13;;;9.30;99.90;;;;;;5032364;28;20497;-68
2024/02/20 09:29:33;;;;;;;29.40;18.50;;;9.40;99.90;;;;;;5033493;28;20225;-67
2024/02/20 09:31:59;;;;;;;27.57;17.70;;;9.40;99.90;;;;;;5031059;28;20573;-68
2024/02/20 09:34:26;;;;;;;24.93;16.47;;;9.40;99.90;;;;;;5032668;28;20193;-67
2024/02/20 09:36:52;;;;;;;27.73;15.80;;;9.40;99.90;;;;;;5033141;28;20425;-71
2024/02/20 09:39:22;;;;;;;28.00;16.23;;;9.40;99.90;;;;;;5032717;28;20472;-64
2024/02/20 09:41:51;;;;;;;27.43;15.70;;;9.50;99.90;;;;;;5032556;28;20514;-67
2024/02/20 09:44:21;;;;;;;30.83;15.70;;;9.50;99.90;;;;;;5032388;28;20427;-69
2024/02/20 09:46:55;;;;;;;24.73;16.07;;;9.40;99.90;;;;;;5031821;28;20452;-70
2024/02/20 09:49:22;;;;;;;28.60;15.43;;;9.50;99.90;;;;;;5032690;28;20433;-69
2024/02/20 09:51:48;;;;;;;25.87;15.00;;;9.50;99.90;;;;;;5032613;28;20467;-68
2024/02/20 09:54:14;;;;;;;25.07;15.13;;;9.50;99.90;;;;;;5032779;28;20528;-68
2024/02/20 09:56:41;;;;;;;26.57;15.80;;;9.50;99.90;;;;;;5032911;28;20951;-67
2024/02/20 09:59:08;;;;;;;23.43;15.90;;;9.50;99.90;;;;;;5032758;28;20515;-69
2024/02/20 10:01:35;;;;;;;23.20;15.13;;;9.50;99.90;;;;;;5032209;28;20520;-69
2024/02/20 10:04:07;;;;;;;30.40;15.53;;;9.50;99.90;;;;;;5031563;28;20429;-68
2024/02/20 10:06:33;;;;;;;23.20;15.80;;;9.60;99.90;;;;;;5031326;28;20487;-66
2024/02/20 10:08:59;;;;;;;24.73;16.03;;;9.60;99.90;;;;;;5032961;28;20434;-70
2024/02/20 10:11:25;;;;;;;23.97;15.13;;;9.70;99.90;;;;;;5030956;28;20461;-67
2024/02/20 10:13:52;;;;;;;33.60;15.30;;;9.70;99.90;;;;;;5032120;28;20425;-68
2024/02/20 10:16:18;;;;;;;23.17;15.43;;;9.70;99.90;;;;;;5030844;28;20952;-65
2024/02/20 10:19:02;;;;;;;28.43;15.50;;;9.70;99.90;;;;;;5030531;28;20436;-72
2024/02/20 10:21:29;;;;;;;27.90;15.50;;;9.70;99.90;;;;;;5031249;28;20589;-71
2024/02/20 10:24:05;;;;;;;25.37;14.97;;;9.70;99.90;;;;;;5032896;28;20530;-70
2024/02/20 10:26:34;;;;;;;27.60;15.70;;;9.80;99.90;;;;;;5031297;28;20802;-67
2024/02/20 10:29:00;;;;;;;33.17;16.73;;;9.80;99.90;;;;;;5032482;28;20865;-70
2024/02/20 10:31:26;;;;;;;30.67;17.93;;;9.90;99.90;;;;;;5028138;28;20464;-68
2024/02/20 10:33:52;;;;;;;26.90;16.10;;;9.90;99.90;;;;;;5032684;28;20421;-68
2024/02/20 10:36:21;;;;;;;27.33;15.10;;;9.90;99.90;;;;;;5031013;28;20531;-65
2024/02/20 10:38:50;;;;;;;26.83;14.53;;;9.90;99.90;;;;;;5031659;28;20431;-66
2024/02/20 10:41:16;;;;;;;25.20;14.43;;;9.90;99.90;;;;;;5031097;28;20425;-70
2024/02/20 10:43:47;;;;;;;32.37;14.53;;;9.90;99.90;;;;;;5031398;28;20444;-67
2024/02/20 10:46:13;;;;;;;23.03;14.30;;;10.00;99.90;;;;;;5030976;28;20808;-69
2024/02/20 10:48:40;;;;;;;30.13;16.00;;;10.00;99.90;;;;;;5031731;28;20429;-66
2024/02/20 10:51:07;;;;;;;21.63;13.50;;;10.00;99.90;;;;;;5030248;28;20214;-69
2024/02/20 10:53:37;;;;;;;34.03;14.90;;;10.00;99.90;;;;;;5030467;28;20647;-67
2024/02/20 10:56:06;;;;;;;27.00;13.63;;;10.00;99.90;;;;;;5046600;28;20429;-69
2024/02/20 10:58:35;;;;;;;23.17;13.00;;;10.00;99.90;;;;;;5028185;28;20432;-68
2024/02/20 11:01:01;;;;;;;24.23;13.97;;;10.00;99.90;;;;;;5031750;28;20444;-67
2024/02/20 11:03:29;;;;;;;28.37;14.80;;;10.00;99.90;;;;;;5030039;28;21053;-69
2024/02/20 11:05:57;;;;;;;21.93;13.40;;;10.00;99.90;;;;;;5032099;28;20426;-69
2024/02/20 11:08:28;;;;;;;26.63;13.00;;;10.00;99.90;;;;;;5028695;28;20807;-70
2024/02/20 11:10:53;;;;;;;25.87;14.23;;;10.00;99.90;;;;;;5030800;28;20995;-67
2024/02/20 11:13:25;;;;;;;19.50;13.87;;;10.00;99.90;;;;;;5030996;28;20444;-67
2024/02/20 11:15:52;;;;;;;32.27;16.07;;;10.00;99.90;;;;;;5031496;28;20301;-68
2024/02/20 11:18:20;;;;;;;23.97;13.50;;;10.00;99.90;;;;;;5029942;28;20432;-69
2024/02/20 11:20:46;;;;;;;26.57;12.80;;;10.00;99.90;;;;;;5030603;28;21167;-65
2024/02/20 11:23:12;;;;;;;28.40;13.97;;;10.00;99.90;;;;;;5030820;28;20417;-71
2024/02/20 11:25:41;;;;;;;24.83;13.40;;;10.10;99.90;;;;;;5029670;28;20431;-68
2024/02/20 11:28:14;;;;;;;25.00;12.60;;;10.00;99.90;;;;;;5030336;28;20527;-70
2024/02/20 11:30:40;;;;;;;24.87;12.07;;;10.10;99.90;;;;;;5027903;28;20490;-65
2024/02/20 11:33:16;;;;;;;26.67;12.43;;;10.10;99.90;;;;;;5030749;28;20421;-65
2024/02/20 11:35:44;;;;;;;26.03;11.80;;;10.00;99.90;;;;;;5028759;28;20492;-70
2024/02/20 11:38:11;;;;;;;20.33;11.37;;;10.00;99.90;;;;;;5030500;28;20431;-68
2024/02/20 11:40:37;;;;;;;25.77;11.80;;;10.00;99.90;;;;;;5029265;28;20629;-65
2024/02/20 11:43:06;;;;;;;29.33;11.20;;;9.90;99.90;;;;;;5030460;28;20924;-67
2024/02/20 11:45:34;;;;;;;21.87;10.67;;;10.00;99.90;;;;;;5029230;28;20433;-69
2024/02/20 11:48:09;;;;;;;23.77;11.50;;;10.00;99.90;;;;;;5030895;28;20444;-70
2024/02/20 11:50:37;;;;;;;20.47;10.67;;;10.10;99.90;;;;;;5029562;28;20437;-66
2024/02/20 11:53:05;;;;;;;22.70;11.43;;;10.10;99.90;;;;;;5030236;28;20465;-67
2024/02/20 11:55:32;;;;;;;25.53;10.60;;;10.10;99.90;;;;;;5030274;28;20420;-69
2024/02/20 11:58:04;;;;;;;27.23;10.40;;;10.10;99.90;;;;;;5029399;28;20443;-64
2024/02/20 12:00:39;;;;;;;23.03;10.13;;;10.10;99.90;;;;;;5029522;28;20432;-65
2024/02/20 12:03:09;;;;;;;27.40;11.60;;;10.20;99.90;;;;;;5029121;28;20464;-70
2024/02/20 12:05:40;;;;;;;17.73;10.40;;;10.10;99.90;;;;;;5029467;28;20991;-70
2024/02/20 12:08:18;;;;;;;23.43;10.90;;;10.20;99.90;;;;;;5030093;28;20857;-68
2024/02/20 12:10:45;;;;;;;24.47;11.60;;;10.20;99.90;;;;;;5029075;28;20526;-67
2024/02/20 12:13:18;;;;;;;25.60;11.50;;;10.30;99.90;;;;;;5030968;28;20483;-70
2024/02/20 12:15:48;;;;;;;21.27;10.90;;;10.30;99.90;;;;;;5029451;28;20429;-69
2024/02/20 12:18:28;;;;;;;20.73;11.70;;;10.20;99.90;;;;;;5029795;28;20958;-69
2024/02/20 12:21:06;;;;;;;15.10;10.50;;;10.20;99.90;;;;;;5027967;28;21526;-68
2024/02/20 12:23:32;;;;;;;19.30;11.33;;;10.20;99.90;;;;;;5029234;28;20456;-68
2024/02/20 12:26:11;;;;;;;23.83;11.53;;;10.30;99.90;;;;;;5030192;28;20478;-67
2024/02/20 12:28:40;;;;;;;22.63;10.90;;;10.20;99.90;;;;;;5029954;28;20487;-71
2024/02/20 12:31:08;;;;;;;22.50;10.60;;;10.30;99.90;;;;;;5028563;28;20477;-68
2024/02/20 12:33:34;;;;;;;22.43;12.20;;;10.30;99.90;;;;;;5029439;28;20495;-67
2024/02/20 12:36:01;;;;;;;17.43;11.60;;;10.30;99.90;;;;;;5030122;28;20425;-67